createdAt,value
2023-05-13T00:02:36.971Z,11.20
2023-05-13T00:08:08.234Z,11.13
2023-05-13T00:13:34.560Z,11.04
2023-05-13T00:19:12.578Z,10.96
2023-05-13T00:24:50.701Z,10.90
2023-05-13T00:30:28.109Z,10.85
2023-05-13T00:35:55.451Z,10.80
2023-05-13T00:41:23.912Z,10.74
2023-05-13T00:46:56.831Z,10.64
2023-05-13T00:53:04.725Z,10.55
2023-05-13T00:59:35.307Z,10.49
2023-05-13T01:06:33.533Z,10.44
2023-05-13T01:12:28.121Z,10.36
2023-05-13T01:18:37.751Z,10.27
2023-05-13T01:24:10.680Z,10.18
2023-05-13T01:29:39.051Z,10.14
2023-05-13T01:35:05.290Z,10.10
2023-05-13T01:40:33.239Z,10.03
2023-05-13T01:46:15.727Z,9.88
2023-05-13T01:51:41.815Z,9.70
2023-05-13T01:57:07.227Z,9.51
2023-05-13T02:02:41.111Z,9.33
2023-05-13T02:08:08.047Z,10.20
2023-05-13T02:13:41.396Z,12.61
2023-05-13T02:19:10.038Z,13.97
2023-05-13T02:24:40.683Z,14.73
2023-05-13T02:30:11.762Z,15.19
2023-05-13T02:35:39.838Z,15.42
2023-05-13T02:41:26.674Z,14.82
2023-05-13T02:47:11.497Z,12.86
2023-05-13T02:52:52.174Z,11.58
2023-05-13T02:58:20.106Z,10.71
2023-05-13T03:03:51.870Z,10.06
2023-05-13T03:09:26.164Z,9.50
2023-05-13T03:15:22.611Z,9.05
2023-05-13T03:21:13.467Z,8.65
2023-05-13T03:26:51.770Z,8.44
2023-05-13T03:32:32.354Z,8.32
2023-05-13T03:37:59.264Z,8.22
2023-05-13T03:43:38.195Z,8.21
2023-05-13T03:49:09.065Z,8.29
2023-05-13T03:54:40.000Z,8.39
2023-05-13T04:00:28.321Z,8.50
2023-05-13T04:05:56.947Z,9.70
2023-05-13T04:11:25.122Z,12.55
2023-05-13T04:16:52.321Z,14.16
2023-05-13T04:22:29.372Z,15.26
2023-05-13T04:27:54.142Z,16.15
2023-05-13T04:33:31.714Z,16.02
2023-05-13T04:39:17.114Z,14.12
2023-05-13T04:44:45.808Z,13.05
2023-05-13T04:50:15.291Z,12.50
2023-05-13T04:55:46.031Z,12.08
2023-05-13T05:01:13.246Z,11.84
2023-05-13T05:06:38.882Z,11.70
2023-05-13T05:12:05.051Z,11.64
2023-05-13T05:17:44.646Z,11.68
2023-05-13T05:23:12.148Z,11.79
2023-05-13T05:28:52.506Z,11.86
2023-05-13T05:34:27.638Z,11.99
2023-05-13T05:39:53.050Z,12.08
2023-05-13T05:45:21.591Z,12.22
2023-05-13T05:50:46.650Z,12.34
2023-05-13T05:56:21.356Z,12.41
2023-05-13T06:01:46.446Z,12.48
2023-05-13T06:07:15.742Z,12.59
2023-05-13T06:12:59.227Z,12.75
2023-05-13T06:18:44.287Z,12.91
2023-05-13T06:24:11.940Z,13.02
2023-05-13T06:29:38.885Z,13.11
2023-05-13T06:35:03.875Z,13.14
2023-05-13T06:40:35.622Z,13.20
2023-05-13T06:46:02.457Z,13.31
2023-05-13T06:52:01.497Z,13.44
2023-05-13T06:57:47.548Z,13.58
2023-05-13T07:03:14.904Z,13.71
2023-05-13T07:08:50.943Z,13.93
2023-05-13T07:14:25.514Z,14.12
2023-05-13T07:20:02.832Z,14.31
2023-05-13T07:26:24.063Z,14.55
2023-05-13T07:32:43.100Z,14.71
2023-05-13T07:38:51.615Z,14.88
2023-05-13T07:44:25.439Z,15.06
2023-05-13T07:50:01.661Z,15.23
2023-05-13T07:55:29.089Z,15.38
2023-05-13T08:00:55.457Z,15.41
2023-05-13T08:06:23.313Z,15.47
2023-05-13T08:11:51.242Z,15.66
2023-05-13T08:17:25.642Z,15.85
2023-05-13T08:22:50.476Z,16.09
2023-05-13T08:28:18.568Z,16.31
2023-05-13T08:33:47.911Z,16.45
2023-05-13T08:39:12.265Z,16.64
2023-05-13T08:44:45.102Z,16.79
2023-05-13T08:50:12.665Z,16.77
2023-05-13T08:55:43.420Z,16.78
2023-05-13T09:01:10.779Z,16.88
2023-05-13T09:06:41.498Z,16.95
2023-05-13T09:12:06.437Z,17.07
2023-05-13T09:17:39.719Z,17.08
2023-05-13T09:23:11.901Z,16.84
2023-05-13T09:28:37.482Z,16.73
2023-05-13T09:34:06.051Z,16.97
2023-05-13T09:39:40.474Z,17.40
2023-05-13T09:45:16.092Z,17.76
2023-05-13T09:50:54.137Z,18.00
2023-05-13T09:56:24.371Z,18.11
2023-05-13T10:01:54.032Z,18.34
2023-05-13T10:07:26.924Z,18.42
2023-05-13T10:13:15.640Z,18.21
2023-05-13T10:18:46.970Z,18.08
2023-05-13T10:24:38.567Z,18.18
2023-05-13T10:30:39.493Z,18.35
2023-05-13T10:36:27.321Z,18.59
2023-05-13T10:42:31.865Z,18.84
2023-05-13T10:48:07.549Z,18.96
2023-05-13T10:53:36.799Z,19.01
2023-05-13T10:59:05.767Z,19.05
2023-05-13T11:04:30.673Z,18.99
2023-05-13T11:09:55.705Z,19.00
2023-05-13T11:15:24.980Z,19.09
2023-05-13T11:21:10.412Z,19.27
2023-05-13T11:26:59.576Z,19.66
2023-05-13T11:33:15.684Z,20.21
2023-05-13T11:39:28.632Z,20.82
2023-05-13T11:44:58.099Z,21.20
2023-05-13T11:50:35.360Z,21.16
2023-05-13T11:56:22.849Z,21.05
2023-05-13T12:02:01.659Z,21.19
2023-05-13T12:07:39.066Z,21.37
2023-05-13T12:13:04.226Z,21.42
2023-05-13T12:18:34.026Z,21.60
2023-05-13T12:24:22.040Z,21.68
2023-05-13T12:30:28.895Z,21.80
2023-05-13T12:36:13.303Z,22.00
2023-05-13T12:41:44.696Z,22.32
2023-05-13T12:47:28.564Z,22.37
2023-05-13T12:52:58.041Z,22.61
2023-05-13T12:58:50.385Z,22.95
2023-05-13T13:04:32.893Z,23.28
2023-05-13T13:10:02.211Z,23.62
2023-05-13T13:15:44.650Z,23.91
2023-05-13T13:21:14.943Z,24.05
2023-05-13T13:26:50.880Z,24.13
2023-05-13T13:32:18.598Z,24.17
2023-05-13T13:37:43.524Z,24.16
2023-05-13T13:43:10.809Z,24.08
2023-05-13T13:48:49.265Z,23.96
2023-05-13T13:54:39.558Z,24.08
2023-05-13T14:00:49.683Z,24.09
2023-05-13T14:06:56.597Z,24.04
2023-05-13T14:12:53.709Z,23.62
2023-05-13T14:18:18.789Z,23.34
2023-05-13T14:23:43.742Z,23.30
2023-05-13T14:29:08.450Z,23.20
2023-05-13T14:34:33.681Z,23.07
2023-05-13T14:39:58.650Z,22.93
2023-05-13T14:45:24.216Z,22.77
2023-05-13T14:51:08.707Z,22.69
2023-05-13T14:56:32.896Z,22.69
2023-05-13T15:01:57.537Z,22.65
2023-05-13T15:07:29.110Z,22.56
2023-05-13T15:12:59.981Z,22.48
2023-05-13T15:18:25.864Z,22.31
2023-05-13T15:23:59.022Z,22.31
2023-05-13T15:29:23.450Z,22.31
2023-05-13T15:34:48.371Z,22.29
2023-05-13T15:40:51.885Z,22.17
2023-05-13T15:46:26.643Z,21.97
2023-05-13T15:51:54.856Z,21.73
2023-05-13T15:57:31.265Z,21.74
2023-05-13T16:02:58.600Z,21.69
2023-05-13T16:08:23.069Z,21.62
2023-05-13T16:13:47.861Z,21.40
2023-05-13T16:19:16.078Z,21.31
2023-05-13T16:24:50.916Z,21.16
2023-05-13T16:30:17.675Z,20.98
2023-05-13T16:35:55.178Z,20.69
2023-05-13T16:41:19.839Z,20.40
2023-05-13T16:46:44.876Z,20.10
2023-05-13T16:52:22.596Z,19.80
2023-05-13T16:57:58.829Z,19.53
2023-05-13T17:03:56.166Z,19.30
2023-05-13T17:09:28.319Z,19.07
2023-05-13T17:14:59.208Z,18.92
2023-05-13T17:20:24.095Z,18.88
2023-05-13T17:26:00.767Z,18.74
2023-05-13T17:31:49.334Z,18.70
2023-05-13T17:37:22.420Z,18.68
2023-05-13T17:42:47.461Z,18.68
2023-05-13T17:48:12.725Z,18.75
2023-05-13T17:53:37.671Z,18.64
2023-05-13T17:59:06.319Z,18.54
2023-05-13T18:04:32.868Z,18.44
2023-05-13T18:10:06.543Z,18.32
2023-05-13T18:15:31.895Z,18.19
2023-05-13T18:20:58.836Z,18.10
2023-05-13T18:26:23.623Z,18.01
2023-05-13T18:31:48.428Z,17.92
2023-05-13T18:37:16.725Z,17.80
2023-05-13T18:42:41.422Z,17.70
2023-05-13T18:48:06.691Z,17.61
2023-05-13T18:53:31.461Z,17.52
2023-05-13T18:58:56.139Z,17.43
2023-05-13T19:04:21.843Z,17.34
2023-05-13T19:10:10.904Z,17.26
2023-05-13T19:15:35.833Z,17.09
2023-05-13T19:21:03.107Z,16.94
2023-05-13T19:26:27.335Z,16.87
2023-05-13T19:31:52.857Z,16.81
2023-05-13T19:37:20.608Z,16.74
2023-05-13T19:42:45.815Z,16.66
2023-05-13T19:48:30.704Z,16.58
2023-05-13T19:54:09.927Z,16.48
2023-05-13T19:59:52.191Z,16.37
2023-05-13T20:05:19.519Z,16.21
2023-05-13T20:10:45.372Z,16.04
2023-05-13T20:16:10.425Z,15.86
2023-05-13T20:21:34.895Z,15.68
2023-05-13T20:27:01.863Z,15.53
2023-05-13T20:32:26.283Z,15.39
2023-05-13T20:37:50.764Z,15.22
2023-05-13T20:43:17.563Z,15.07
2023-05-13T20:48:42.290Z,14.94
2023-05-13T20:54:14.167Z,14.79
2023-05-13T20:59:38.847Z,14.61
2023-05-13T21:05:04.085Z,14.46
2023-05-13T21:10:28.440Z,14.34
2023-05-13T21:15:53.576Z,14.24
2023-05-13T21:21:19.964Z,14.16
2023-05-13T21:26:50.080Z,14.06
2023-05-13T21:32:15.484Z,13.96
2023-05-13T21:37:41.185Z,13.87
2023-05-13T21:43:09.241Z,13.77
2023-05-13T21:48:34.689Z,13.64
2023-05-13T21:53:59.951Z,13.50
2023-05-13T21:59:26.628Z,13.36
2023-05-13T22:04:51.499Z,13.23
2023-05-13T22:10:27.380Z,13.11
2023-05-13T22:15:55.600Z,13.01
2023-05-13T22:21:20.875Z,12.91
2023-05-13T22:26:46.769Z,12.82
2023-05-13T22:32:11.740Z,12.70
2023-05-13T22:37:42.784Z,12.62
2023-05-13T22:43:07.259Z,12.54
2023-05-13T22:48:32.223Z,12.47
2023-05-13T22:53:57.291Z,12.41
2023-05-13T22:59:23.634Z,12.35
2023-05-13T23:04:47.790Z,12.28
2023-05-13T23:10:12.257Z,12.17
2023-05-13T23:15:40.009Z,12.04
2023-05-13T23:21:04.953Z,11.91
2023-05-13T23:26:30.182Z,11.81
2023-05-13T23:31:58.764Z,11.68
2023-05-13T23:37:22.989Z,11.52
2023-05-13T23:42:47.774Z,11.39
2023-05-13T23:48:21.725Z,11.29
2023-05-13T23:53:50.079Z,11.19
2023-05-13T23:59:39.048Z,11.09
